• Join FlightAware (Why Join?)
  • Login
  • US Flag 
06:25AM EST


 

Airport Tracker/Info


-or-


 

Live Flight TrackerFlight Track Log ✈ EJA922 ✈ 23-Sep-2013 ✈ KHPN - KOSU

Flight Track Log - Related Links

Times and Time Zones

All times are in EDT time to prevent confusion due to time zone crossing. See the EJA922 flight status page for this flight to view local times or setup timezone preferences in your user account.

Time Position Orientation Groundspeed Altitude Reporting Facility
EDT Latitude Longitude Course Direction KTS MPH feet Rate Location/Type
08:21AM 41.0833 -73.7167 270° West 180 207 1,600  Level New York TRACON
08:22AM 41.0833 -73.8000 270° West 212 244 4,800 3,300 Climbing New York TRACON
08:23AM 41.0500 -73.8833 242° Southwest 278 320 8,600 3,120 Climbing New York TRACON
08:24AM 41.0000 -73.9833 236° Southwest 292 336 11,400 2,700 Climbing New York TRACON
08:25AM 40.9833 -74.1000 259° West 316 364 14,300 1,980 Climbing New York TRACON
08:26AM 40.9667 -74.2167 259° West 338 389 15,600 960 Climbing New York TRACON
08:28AM 40.9261 -74.4183 255° West 344 396 17,000 480 Climbing New York Center
08:29AM 40.9053 -74.5489 258° West 344 396 17,000  Level New York Center
08:30AM 40.8853 -74.6575 256° West 336 387 17,100 840 Climbing New York Center
08:31AM 40.8619 -74.7906 257° West 341 392 18,700 1,800 Climbing New York Center
08:32AM 40.8436 -74.8994 257° West 341 392 20,700 1,620 Climbing New York Center
08:33AM 40.8200 -75.0350 257° West 354 407 22,000 1,500 Climbing New York Center
08:34AM 40.7961 -75.1761 257° West 379 436 23,700 1,920 Climbing New York Center
08:35AM 40.7714 -75.3361 259° West 402 463 25,900 1,800 Climbing New York Center
08:36AM 40.7369 -75.4653 251° West 414 476 27,400 1,560 Climbing New York Center
08:37AM 40.6856 -75.6069 244° Southwest 424 488 29,100 1,620 Climbing New York Center
08:38AM 40.6292 -75.7561 244° Southwest 437 503 30,700 1,680 Climbing New York Center
08:39AM 40.5728 -75.9050 244° Southwest 447 514 32,500 2,220 Climbing New York Center
08:40AM 40.5122 -76.0506 241° Southwest 454 522 35,200 2,100 Climbing New York Center
08:41AM 40.4578 -76.1964 244° Southwest 454 522 36,800 1,380 Climbing New York Center
08:42AM 40.4011 -76.3392 243° Southwest 454 522 38,000 600 Climbing New York Center
08:43AM 40.3561 -76.4964 249° West 460 529 38,000  Level New York Center
08:44AM 40.3144 -76.6617 252° West 465 535 38,000  Level New York Center
08:45AM 40.2683 -76.8319 251° West 485 558 38,000  Level New York Center
08:46AM 40.2264 -76.9994 252° West 497 572 38,000  Level New York Center
08:47AM 40.1800 -77.1667 250° West 497 572 38,000  Level New York Center
08:48AM 40.1550 -77.3544 260° West 485 558 38,000  Level New York Center
08:50AM 40.1431 -77.7875 268° West 476 548 38,000  Level Cleveland Center
08:51AM 40.1389 -77.9467 268° West 474 545 38,000  Level Cleveland Center
08:52AM 40.1339 -78.1169 268° West 472 543 38,000  Level Cleveland Center
08:53AM 40.1267 -78.3228 267° West 473 544 38,000 -60 Level Cleveland Center
08:54AM 40.1219 -78.4919 268° West 470 541 37,900 -780 Descending Cleveland Center
08:55AM 40.1156 -78.6639 267° West 475 547 36,400 -1,740 Descending Cleveland Center
08:56AM 40.1092 -78.8372 267° West 479 551 34,400 -1,980 Descending Cleveland Center
08:57AM 40.1028 -79.0139 267° West 497 572 32,400 -1,200 Descending Cleveland Center
08:58AM 40.0967 -79.1903 267° West 490 564 32,000 -240 Descending Cleveland Center
08:59AM 40.0875 -79.4022 267° West 496 571 32,000  Level Cleveland Center
09:00AM 40.0794 -79.5856 267° West 504 580 32,000  Level Cleveland Center
09:01AM 40.0708 -79.7686 267° West 505 581 32,000  Level Cleveland Center
09:02AM 40.0622 -79.9519 267° West 504 580 32,000 -540 Level Cleveland Center
09:03AM 40.0544 -80.1356 267° West 504 580 30,900 -1,500 Descending Cleveland Center
09:04AM 40.0447 -80.3172 266° West 499 574 28,900 -1,980 Descending Cleveland Center
09:06AM 40.0347 -80.4986 266° West 500 575 26,900 -2,220 Descending Cleveland Center
09:07AM 40.0236 -80.7050 266° West 475 547 24,400 -2,220 Descending Cleveland Center
09:08AM 40.0083 -80.8683 263° West 458 527 22,400 -1,200 Descending Cleveland Center
09:09AM 39.9756 -81.0289 255° West 458 527 22,000 -960 Descending Cleveland Center
09:10AM 39.9447 -81.1928 256° West 466 536 20,500 -1,560 Descending Cleveland Center
09:11AM 39.9139 -81.3522 256° West 457 526 18,800 -1,800 Descending Cleveland Center
09:12AM 39.8789 -81.5233 255° West 442 509 16,800 -1,680 Descending Cleveland Center
09:13AM 39.8494 -81.6697 255° West 424 488 15,300 -1,500 Descending Cleveland Center
09:14AM 39.8211 -81.8108 255° West 409 471 13,700 -1,680 Descending Cleveland Center
09:15AM 39.7961 -81.9381 256° West 400 460 12,300 -1,740 Descending Indianapolis Center
09:15AM 39.7811 -82.0089 255° West 401 461 11,500 -1,320 Descending Indianapolis Center
09:16AM 39.7525 -82.1478 255° West 399 459 10,300 -780 Descending Indianapolis Center
09:17AM 39.7325 -82.2683 258° West 347 399 10,000 -1,020 Descending Indianapolis Center
09:18AM 39.8022 -82.3228 329° Northwest 258 297 8,200 -1,740 Descending Indianapolis Center
09:19AM 39.8664 -82.3472 344° North 274 315 6,500 -1,980 Descending Indianapolis Center
09:19AM 39.8792 -82.3533 340° North 272 313 6,200 -1,620 Descending Indianapolis Center
09:20AM 39.9378 -82.3786 342° North 263 303 5,000 -1,200 Descending Indianapolis Center
09:20AM 39.9367 -82.3767 127° Southeast 270 311 5,000  Level Indianapolis Center
09:21AM 40.0086 -82.4342 329° Northwest 261 300 5,000  Level Indianapolis Center
09:22AM 40.0606 -82.4847 323° Northwest 255 293 5,000  Level Indianapolis Center
09:22AM 40.0658 -82.4903 321° Northwest 259 298 5,000  Level Indianapolis Center
09:23AM 40.0925 -82.5469 302° West 221 254 5,000  Level Indianapolis Center
09:23AM 40.0933 -82.5586 275° West 228 262 5,000 -900 Level Indianapolis Center
09:24AM 40.0897 -82.6231 266° West 204 235 4,100 -1,020 Descending Indianapolis Center
09:24AM 40.0900 -82.6353 272° West 212 244 4,000 -120 Descending Indianapolis Center
09:25AM 40.0881 -82.7147 268° West 215 247 4,000  Level Indianapolis Center
09:26AM 40.0858 -82.8003 268° West 220 253 4,000  Level Indianapolis Center
09:26AM 40.0864 -82.7950 82° East 219 252 4,000 -240 Level Indianapolis Center
09:27AM 40.0839 -82.8683 267° West 206 237 3,800 -420 Descending Indianapolis Center
09:27AM 40.0847 -82.8853 274° West 214 246 3,600 -1,080 Descending Indianapolis Center
09:28AM 40.0819 -82.9528 267° West 198 228 2,600 -1,080 Descending Indianapolis Center
09:28AM 40.0814 -82.9572 261° West 208 239 2,500 -780 Descending Indianapolis Center
09:29AM 40.0789 -83.0097 266° West 144 166 1,800 -780 Descending Indianapolis Center
09:30AM 40.0789 -83.0142 270° West 177 204 1,700 -660 Descending Indianapolis Center
09:31AM 40.0778 -83.0669 268° West 154 177 1,100 -600 Descending Indianapolis Center